createdAt,value
2022-09-27T00:01:15.427Z,97.47
2022-09-27T00:03:43.594Z,100.00
2022-09-27T00:06:15.688Z,100.00
2022-09-27T00:08:44.588Z,100.00
2022-09-27T00:11:18.959Z,100.00
2022-09-27T00:13:47.041Z,100.00
2022-09-27T00:16:15.341Z,100.00
2022-09-27T00:18:43.770Z,100.00
2022-09-27T00:21:15.479Z,100.00
2022-09-27T00:23:43.670Z,100.00
2022-09-27T00:26:14.221Z,100.00
2022-09-27T00:28:42.523Z,100.00
2022-09-27T00:31:21.250Z,100.00
2022-09-27T00:33:50.252Z,100.00
2022-09-27T00:36:21.042Z,100.00
2022-09-27T00:38:49.627Z,100.00
2022-09-27T00:41:20.238Z,100.00
2022-09-27T00:43:50.573Z,100.00
2022-09-27T00:46:27.558Z,100.00
2022-09-27T00:49:05.419Z,100.00
2022-09-27T00:51:38.348Z,100.00
2022-09-27T00:54:08.583Z,100.00
2022-09-27T00:56:38.436Z,100.00
2022-09-27T00:59:11.995Z,100.00
2022-09-27T01:01:40.672Z,100.00
2022-09-27T01:04:10.859Z,100.00
2022-09-27T01:06:40.302Z,100.00
2022-09-27T01:09:10.592Z,100.00
2022-09-27T01:11:47.003Z,100.00
2022-09-27T01:14:44.256Z,100.00
2022-09-27T01:17:27.794Z,100.00
2022-09-27T01:20:31.451Z,100.00
2022-09-27T01:23:20.655Z,100.00
2022-09-27T01:26:01.981Z,100.00
2022-09-27T01:28:44.861Z,100.00
2022-09-27T01:31:24.174Z,100.00
2022-09-27T01:34:04.116Z,100.00
2022-09-27T01:36:43.642Z,100.00
2022-09-27T01:39:39.386Z,100.00
2022-09-27T01:42:15.581Z,100.00
2022-09-27T01:44:53.678Z,100.00
2022-09-27T01:47:24.464Z,100.00
2022-09-27T01:49:58.250Z,100.00
2022-09-27T01:52:33.058Z,100.00
2022-09-27T01:55:04.219Z,100.00
2022-09-27T01:57:37.665Z,100.00
2022-09-27T02:00:08.817Z,100.00
2022-09-27T02:02:44.650Z,100.00
2022-09-27T02:05:17.948Z,100.00
2022-09-27T02:07:52.903Z,100.00
2022-09-27T02:10:24.993Z,100.00
2022-09-27T02:13:03.002Z,100.00
2022-09-27T02:15:40.327Z,100.00
2022-09-27T02:18:17.788Z,100.00
2022-09-27T02:20:50.683Z,100.00
2022-09-27T02:23:24.942Z,100.00
2022-09-27T02:25:58.793Z,100.00
2022-09-27T02:28:32.291Z,100.00
2022-09-27T02:31:00.949Z,100.00
2022-09-27T02:33:35.567Z,100.00
2022-09-27T02:36:03.804Z,100.00
2022-09-27T02:38:32.060Z,100.00
2022-09-27T02:41:00.173Z,100.00
2022-09-27T02:43:32.233Z,100.00
2022-09-27T02:46:12.802Z,100.00
2022-09-27T02:48:50.787Z,100.00
2022-09-27T02:51:40.179Z,100.00
2022-09-27T02:54:19.632Z,100.00
2022-09-27T02:57:05.655Z,100.00
2022-09-27T02:59:43.104Z,100.00
2022-09-27T03:02:18.067Z,100.00
2022-09-27T03:04:53.156Z,100.00
2022-09-27T03:07:22.159Z,100.00
2022-09-27T03:09:53.601Z,100.00
2022-09-27T03:12:26.180Z,100.00
2022-09-27T03:14:56.289Z,100.00
2022-09-27T03:17:24.525Z,100.00
2022-09-27T03:19:53.913Z,100.00
2022-09-27T03:22:22.379Z,100.00
2022-09-27T03:24:50.411Z,100.00
2022-09-27T03:27:18.706Z,100.00
2022-09-27T03:29:47.219Z,100.00
2022-09-27T03:32:15.435Z,100.00
2022-09-27T03:34:43.516Z,100.00
2022-09-27T03:37:12.878Z,100.00
2022-09-27T03:39:40.927Z,100.00
2022-09-27T03:42:08.902Z,100.00
2022-09-27T03:44:37.112Z,100.00
2022-09-27T03:47:05.218Z,100.00
2022-09-27T03:49:33.966Z,100.00
2022-09-27T03:52:02.212Z,100.00
2022-09-27T03:54:31.616Z,100.00
2022-09-27T03:56:59.575Z,100.00
2022-09-27T03:59:27.603Z,100.00
2022-09-27T04:01:56.406Z,100.00
2022-09-27T04:04:25.079Z,100.00
2022-09-27T04:06:53.303Z,100.00
2022-09-27T04:09:21.389Z,100.00
2022-09-27T04:11:50.780Z,100.00
2022-09-27T04:14:18.802Z,100.00
2022-09-27T04:16:46.903Z,100.00
2022-09-27T04:19:15.110Z,100.00
2022-09-27T04:21:43.292Z,100.00
2022-09-27T04:24:12.046Z,100.00
2022-09-27T04:26:40.741Z,100.00
2022-09-27T04:29:10.463Z,100.00
2022-09-27T04:31:38.553Z,100.00
2022-09-27T04:34:06.961Z,100.00
2022-09-27T04:36:34.524Z,100.00
2022-09-27T04:39:04.842Z,100.00
2022-09-27T04:41:33.274Z,100.00
2022-09-27T04:44:01.404Z,100.00
2022-09-27T04:46:32.263Z,100.00
2022-09-27T04:49:01.460Z,100.00
2022-09-27T04:51:29.760Z,100.00
2022-09-27T04:53:58.327Z,100.00
2022-09-27T04:56:26.492Z,100.00
2022-09-27T04:58:55.022Z,100.00
2022-09-27T05:01:23.399Z,100.00
2022-09-27T05:03:52.923Z,100.00
2022-09-27T05:06:20.906Z,100.00
2022-09-27T05:08:48.932Z,100.00
2022-09-27T05:11:16.916Z,100.00
2022-09-27T05:13:44.948Z,100.00
2022-09-27T05:16:13.301Z,100.00
2022-09-27T05:18:42.394Z,100.00
2022-09-27T05:21:11.765Z,100.00
2022-09-27T05:23:41.322Z,100.00
2022-09-27T05:26:12.321Z,100.00
2022-09-27T05:28:44.645Z,100.00
2022-09-27T05:31:13.511Z,100.00
2022-09-27T05:33:42.960Z,100.00
2022-09-27T05:36:12.781Z,100.00
2022-09-27T05:38:43.091Z,100.00
2022-09-27T05:41:12.048Z,100.00
2022-09-27T05:43:40.109Z,100.00
2022-09-27T05:46:08.546Z,100.00
2022-09-27T05:48:37.278Z,100.00
2022-09-27T05:51:06.358Z,100.00
2022-09-27T05:53:36.623Z,100.00
2022-09-27T05:56:05.686Z,100.00
2022-09-27T05:58:34.519Z,100.00
2022-09-27T06:01:02.475Z,100.00
2022-09-27T06:03:31.998Z,100.00
2022-09-27T06:06:06.183Z,100.00
2022-09-27T06:08:36.978Z,100.00
2022-09-27T06:11:07.024Z,100.00
2022-09-27T06:13:36.485Z,100.00
2022-09-27T06:16:05.889Z,100.00
2022-09-27T06:18:34.486Z,100.00
2022-09-27T06:21:03.106Z,100.00
2022-09-27T06:23:33.431Z,100.00
2022-09-27T06:26:05.086Z,100.00
2022-09-27T06:28:35.098Z,100.00
2022-09-27T06:31:03.102Z,100.00
2022-09-27T06:33:31.408Z,100.00
2022-09-27T06:36:03.725Z,100.00
2022-09-27T06:38:32.958Z,100.00
2022-09-27T06:41:07.052Z,100.00
2022-09-27T06:43:35.230Z,100.00
2022-09-27T06:46:06.085Z,100.00
2022-09-27T06:48:37.770Z,100.00
2022-09-27T06:51:05.861Z,100.00
2022-09-27T06:53:34.359Z,100.00
2022-09-27T06:56:04.966Z,100.00
2022-09-27T06:58:50.385Z,100.00
2022-09-27T07:01:18.887Z,100.00
2022-09-27T07:03:51.565Z,100.00
2022-09-27T07:06:22.736Z,100.00
2022-09-27T07:08:54.244Z,100.00
2022-09-27T07:11:26.115Z,100.00
2022-09-27T07:13:54.138Z,100.00
2022-09-27T07:16:22.143Z,100.00
2022-09-27T07:18:51.648Z,99.85
2022-09-27T07:21:19.888Z,98.22
2022-09-27T07:23:48.719Z,98.05
2022-09-27T07:26:16.786Z,96.99
2022-09-27T07:28:46.284Z,97.08
2022-09-27T07:31:14.468Z,96.00
2022-09-27T07:33:43.629Z,94.47
2022-09-27T07:36:13.131Z,94.18
2022-09-27T07:38:41.359Z,94.05
2022-09-27T07:41:12.485Z,92.85
2022-09-27T07:43:40.465Z,91.83
2022-09-27T07:46:11.314Z,90.74
2022-09-27T07:48:41.231Z,90.50
2022-09-27T07:51:10.971Z,90.42
2022-09-27T07:53:39.718Z,89.50
2022-09-27T07:56:08.222Z,89.57
2022-09-27T07:58:36.228Z,90.03
2022-09-27T08:01:04.407Z,91.21
2022-09-27T08:03:35.054Z,90.36
2022-09-27T08:06:04.417Z,91.77
2022-09-27T08:08:32.570Z,92.07
2022-09-27T08:11:00.592Z,91.90
2022-09-27T08:13:29.646Z,93.46
2022-09-27T08:16:03.737Z,93.80
2022-09-27T08:18:35.929Z,95.20
2022-09-27T08:21:05.006Z,93.94
2022-09-27T08:23:33.171Z,92.59
2022-09-27T08:26:01.239Z,89.37
2022-09-27T08:28:29.966Z,87.53
2022-09-27T08:30:59.268Z,85.71
2022-09-27T08:33:32.316Z,85.52
2022-09-27T08:36:03.644Z,87.72
2022-09-27T08:38:31.639Z,89.21
2022-09-27T08:41:06.582Z,89.07
2022-09-27T08:43:40.528Z,88.70
2022-09-27T08:46:23.051Z,88.28
2022-09-27T08:48:55.967Z,85.65
2022-09-27T08:51:31.286Z,85.93
2022-09-27T08:54:05.495Z,84.38
2022-09-27T08:56:33.618Z,85.08
2022-09-27T08:59:10.406Z,84.90
2022-09-27T09:01:39.216Z,83.72
2022-09-27T09:04:07.806Z,81.99
2022-09-27T09:06:44.202Z,81.33
2022-09-27T09:09:27.621Z,80.70
2022-09-27T09:12:24.489Z,80.85
2022-09-27T09:15:05.891Z,80.62
2022-09-27T09:17:47.823Z,79.97
2022-09-27T09:20:27.429Z,79.91
2022-09-27T09:23:16.585Z,78.23
2022-09-27T09:25:52.173Z,78.01
2022-09-27T09:28:36.177Z,77.69
2022-09-27T09:31:13.015Z,76.95
2022-09-27T09:33:47.506Z,77.50
2022-09-27T09:36:24.279Z,77.32
2022-09-27T09:38:58.561Z,75.17
2022-09-27T09:41:32.322Z,75.09
2022-09-27T09:44:06.344Z,75.69
2022-09-27T09:46:43.434Z,73.67
2022-09-27T09:49:20.158Z,72.08
2022-09-27T09:51:55.907Z,70.55
2022-09-27T09:54:28.762Z,70.93
2022-09-27T09:57:03.658Z,70.21
2022-09-27T09:59:39.749Z,70.26
2022-09-27T10:02:25.052Z,67.35
2022-09-27T10:04:53.121Z,63.65
2022-09-27T10:07:23.699Z,63.61
2022-09-27T10:09:55.413Z,64.94
2022-09-27T10:12:23.683Z,64.39
2022-09-27T10:14:53.095Z,63.83
2022-09-27T10:17:25.528Z,64.23
2022-09-27T10:19:54.823Z,64.06
2022-09-27T10:22:28.486Z,62.36
2022-09-27T10:25:01.945Z,61.55
2022-09-27T10:27:38.988Z,61.87
2022-09-27T10:30:28.080Z,62.92
2022-09-27T10:33:01.002Z,63.73
2022-09-27T10:35:38.287Z,63.19
2022-09-27T10:38:25.404Z,64.56
2022-09-27T10:40:57.359Z,64.28
2022-09-27T10:43:31.423Z,64.49
2022-09-27T10:46:07.693Z,63.47
2022-09-27T10:48:36.824Z,63.52
2022-09-27T10:51:07.928Z,62.33
2022-09-27T10:53:37.998Z,62.09
2022-09-27T10:56:08.465Z,61.80
2022-09-27T10:58:39.621Z,63.03
2022-09-27T11:01:12.421Z,62.69
2022-09-27T11:03:49.298Z,62.83
2022-09-27T11:06:28.352Z,62.80
2022-09-27T11:09:10.641Z,60.64
2022-09-27T11:11:39.993Z,61.89
2022-09-27T11:14:20.040Z,62.38
2022-09-27T11:16:57.269Z,61.96
2022-09-27T11:19:42.470Z,61.08
2022-09-27T11:22:25.862Z,61.08
2022-09-27T11:25:14.050Z,59.78
2022-09-27T11:27:57.608Z,60.08
2022-09-27T11:30:26.213Z,61.55
2022-09-27T11:33:26.698Z,60.50
2022-09-27T11:36:02.849Z,60.31
2022-09-27T11:38:52.708Z,59.00
2022-09-27T11:41:46.333Z,57.87
2022-09-27T11:44:45.539Z,58.42
2022-09-27T11:47:21.274Z,58.34
2022-09-27T11:50:44.708Z,57.05
2022-09-27T11:53:26.943Z,56.56
2022-09-27T11:56:04.695Z,55.34
2022-09-27T11:58:43.253Z,56.11
2022-09-27T12:01:26.912Z,55.03
2022-09-27T12:04:20.412Z,54.84
2022-09-27T12:06:58.872Z,53.66
2022-09-27T12:09:32.254Z,53.80
2022-09-27T12:12:05.546Z,52.91
2022-09-27T12:14:40.230Z,53.07
2022-09-27T12:17:16.828Z,51.70
2022-09-27T12:19:50.969Z,51.04
2022-09-27T12:22:46.665Z,51.28
2022-09-27T12:25:20.294Z,51.52
2022-09-27T12:27:53.764Z,50.83
2022-09-27T12:30:21.724Z,50.15
2022-09-27T12:32:57.903Z,48.86
2022-09-27T12:35:30.243Z,48.63
2022-09-27T12:38:02.291Z,47.83
2022-09-27T12:40:33.129Z,47.52
2022-09-27T12:43:06.051Z,48.21
2022-09-27T12:45:47.232Z,47.34
2022-09-27T12:48:24.661Z,46.76
2022-09-27T12:50:55.420Z,46.83
2022-09-27T12:53:28.632Z,46.75
2022-09-27T12:56:15.123Z,46.10
2022-09-27T12:59:23.895Z,46.31
2022-09-27T13:02:26.883Z,46.36
2022-09-27T13:05:18.400Z,46.36
2022-09-27T13:07:55.271Z,46.41
2022-09-27T13:10:45.230Z,47.15
2022-09-27T13:13:16.991Z,47.15
2022-09-27T13:15:47.168Z,47.93
2022-09-27T13:18:50.204Z,47.92
2022-09-27T13:22:04.253Z,47.85
2022-09-27T13:24:48.506Z,47.67
2022-09-27T13:27:38.139Z,48.45
2022-09-27T13:30:48.686Z,48.76
2022-09-27T13:33:46.099Z,48.13
2022-09-27T13:36:34.085Z,48.89
2022-09-27T13:39:22.867Z,49.41
2022-09-27T13:42:17.831Z,49.92
2022-09-27T13:44:54.977Z,49.51
2022-09-27T13:47:32.967Z,49.65
2022-09-27T13:50:15.104Z,49.16
2022-09-27T13:52:46.266Z,49.38
2022-09-27T13:55:41.715Z,48.84
2022-09-27T13:58:34.558Z,48.86
2022-09-27T14:01:07.847Z,49.46
2022-09-27T14:03:38.764Z,50.11
2022-09-27T14:06:09.384Z,50.97
2022-09-27T14:08:45.547Z,51.97
2022-09-27T14:11:17.162Z,52.26
2022-09-27T14:13:48.572Z,54.97
2022-09-27T14:16:19.740Z,56.44
2022-09-27T14:18:51.203Z,59.22
2022-09-27T14:21:27.186Z,62.09
2022-09-27T14:23:55.367Z,63.83
2022-09-27T14:26:25.751Z,64.75
2022-09-27T14:28:55.532Z,66.27
2022-09-27T14:31:24.988Z,67.51
2022-09-27T14:34:07.361Z,68.00
2022-09-27T14:36:54.843Z,69.03
2022-09-27T14:39:26.533Z,69.32
2022-09-27T14:41:54.694Z,70.40
2022-09-27T14:44:28.108Z,70.36
2022-09-27T14:47:10.359Z,70.50
2022-09-27T14:49:48.636Z,71.34
2022-09-27T14:52:24.379Z,71.49
2022-09-27T14:54:59.789Z,72.03
2022-09-27T14:57:30.379Z,72.26
2022-09-27T15:00:01.233Z,72.23
2022-09-27T15:02:30.660Z,72.84
2022-09-27T15:04:58.763Z,73.37
2022-09-27T15:07:28.027Z,73.40
2022-09-27T15:09:56.812Z,72.83
2022-09-27T15:12:27.481Z,71.62
2022-09-27T15:14:59.384Z,72.25
2022-09-27T15:17:28.913Z,72.62
2022-09-27T15:20:06.875Z,73.09
2022-09-27T15:22:45.056Z,73.51
2022-09-27T15:25:32.593Z,73.48
2022-09-27T15:28:02.736Z,73.49
2022-09-27T15:30:36.695Z,73.28
2022-09-27T15:33:08.769Z,73.29
2022-09-27T15:35:37.449Z,72.98
2022-09-27T15:38:26.001Z,73.00
2022-09-27T15:41:13.094Z,72.71
2022-09-27T15:43:45.557Z,72.78
2022-09-27T15:46:39.715Z,73.17
2022-09-27T15:49:30.948Z,73.44
2022-09-27T15:52:00.611Z,73.95
2022-09-27T15:54:30.826Z,73.98
2022-09-27T15:57:05.058Z,74.67
2022-09-27T15:59:36.103Z,75.41
2022-09-27T16:02:08.206Z,75.91
2022-09-27T16:04:37.860Z,77.34
2022-09-27T16:07:09.147Z,78.98
2022-09-27T16:09:37.306Z,79.93
2022-09-27T16:12:05.682Z,81.31
2022-09-27T16:14:33.812Z,81.57
2022-09-27T16:17:02.442Z,84.16
2022-09-27T16:19:30.468Z,84.56
2022-09-27T16:22:03.702Z,86.23
2022-09-27T16:24:32.347Z,88.62
2022-09-27T16:27:00.714Z,92.58
2022-09-27T16:29:28.767Z,95.45
2022-09-27T16:31:57.143Z,99.81
2022-09-27T16:34:25.282Z,100.00
2022-09-27T16:36:53.349Z,100.00
2022-09-27T16:39:22.856Z,100.00
2022-09-27T16:41:54.788Z,100.00
2022-09-27T16:44:22.727Z,100.00
2022-09-27T16:46:50.911Z,100.00
2022-09-27T16:49:36.520Z,100.00
2022-09-27T16:52:04.720Z,100.00
2022-09-27T16:54:34.232Z,100.00
2022-09-27T16:57:02.255Z,99.07
2022-09-27T16:59:30.320Z,100.00
2022-09-27T17:01:58.745Z,100.00
2022-09-27T17:04:27.966Z,100.00
2022-09-27T17:06:57.055Z,100.00
2022-09-27T17:09:25.629Z,100.00
2022-09-27T17:11:55.543Z,100.00
2022-09-27T17:14:24.010Z,100.00
2022-09-27T17:16:52.560Z,100.00
2022-09-27T17:19:21.083Z,100.00
2022-09-27T17:21:49.029Z,100.00
2022-09-27T17:24:17.163Z,100.00
2022-09-27T17:26:45.950Z,100.00
2022-09-27T17:29:16.280Z,100.00
2022-09-27T17:31:44.681Z,100.00
2022-09-27T17:34:15.845Z,100.00
2022-09-27T17:36:48.400Z,100.00
2022-09-27T17:39:18.982Z,100.00
2022-09-27T17:41:47.069Z,100.00
2022-09-27T17:44:18.308Z,100.00
2022-09-27T17:46:47.528Z,100.00
2022-09-27T17:49:33.506Z,100.00
2022-09-27T17:52:01.853Z,100.00
2022-09-27T17:54:29.949Z,100.00
2022-09-27T17:56:58.541Z,100.00
2022-09-27T17:59:28.034Z,100.00
2022-09-27T18:01:56.114Z,100.00
2022-09-27T18:04:24.175Z,100.00
2022-09-27T18:06:52.227Z,100.00
2022-09-27T18:09:20.283Z,100.00
2022-09-27T18:11:48.431Z,100.00
2022-09-27T18:14:16.795Z,100.00
2022-09-27T18:16:46.310Z,100.00
2022-09-27T18:19:16.574Z,100.00
2022-09-27T18:21:45.336Z,100.00
2022-09-27T18:24:14.306Z,100.00
2022-09-27T18:26:43.121Z,100.00
2022-09-27T18:29:13.382Z,100.00
2022-09-27T18:31:47.485Z,100.00
2022-09-27T18:34:18.999Z,100.00
2022-09-27T18:36:47.607Z,100.00
2022-09-27T18:39:19.447Z,100.00
2022-09-27T18:41:49.574Z,100.00
2022-09-27T18:44:19.163Z,100.00
2022-09-27T18:46:48.062Z,100.00
2022-09-27T18:49:18.098Z,100.00
2022-09-27T18:51:49.528Z,100.00
2022-09-27T18:54:20.976Z,100.00
2022-09-27T18:56:50.833Z,100.00
2022-09-27T18:59:20.791Z,100.00
2022-09-27T19:01:49.037Z,100.00
2022-09-27T19:04:24.601Z,100.00
2022-09-27T19:06:54.966Z,100.00
2022-09-27T19:09:23.409Z,100.00
2022-09-27T19:11:52.109Z,100.00
2022-09-27T19:14:22.724Z,100.00
2022-09-27T19:16:52.253Z,100.00
2022-09-27T19:19:22.429Z,100.00
2022-09-27T19:21:50.873Z,100.00
2022-09-27T19:24:19.923Z,100.00
2022-09-27T19:26:50.037Z,100.00
2022-09-27T19:29:18.183Z,100.00
2022-09-27T19:31:46.585Z,100.00
2022-09-27T19:34:14.623Z,100.00
2022-09-27T19:36:44.437Z,100.00
2022-09-27T19:39:12.443Z,100.00
2022-09-27T19:41:40.436Z,100.00
2022-09-27T19:44:08.552Z,100.00
2022-09-27T19:46:37.591Z,100.00
2022-09-27T19:49:05.725Z,100.00
2022-09-27T19:51:34.069Z,100.00
2022-09-27T19:54:04.293Z,100.00
2022-09-27T19:56:32.431Z,100.00
2022-09-27T19:59:04.972Z,100.00
2022-09-27T20:01:35.069Z,100.00
2022-09-27T20:04:03.563Z,100.00
2022-09-27T20:06:32.763Z,100.00
2022-09-27T20:09:03.081Z,100.00
2022-09-27T20:11:34.073Z,100.00
2022-09-27T20:14:02.289Z,100.00
2022-09-27T20:16:30.335Z,100.00
2022-09-27T20:19:00.363Z,100.00
2022-09-27T20:21:33.120Z,100.00
2022-09-27T20:24:02.762Z,100.00
2022-09-27T20:26:34.608Z,100.00
2022-09-27T20:29:04.936Z,100.00
2022-09-27T20:31:36.970Z,100.00
2022-09-27T20:34:06.569Z,100.00
2022-09-27T20:36:37.967Z,100.00
2022-09-27T20:39:07.469Z,100.00
2022-09-27T20:41:39.283Z,100.00
2022-09-27T20:44:09.194Z,100.00
2022-09-27T20:46:39.549Z,100.00
2022-09-27T20:49:14.754Z,100.00
2022-09-27T20:52:04.966Z,100.00
2022-09-27T20:54:33.214Z,100.00
2022-09-27T20:57:02.612Z,100.00
2022-09-27T20:59:30.651Z,100.00
2022-09-27T21:01:59.253Z,100.00
2022-09-27T21:04:27.377Z,100.00
2022-09-27T21:06:56.593Z,100.00
2022-09-27T21:09:24.758Z,100.00
2022-09-27T21:11:54.013Z,100.00
2022-09-27T21:14:24.276Z,100.00
2022-09-27T21:16:52.505Z,100.00
2022-09-27T21:19:20.562Z,100.00
2022-09-27T21:21:48.608Z,100.00
2022-09-27T21:24:16.861Z,100.00
2022-09-27T21:26:44.902Z,100.00
2022-09-27T21:29:15.147Z,100.00
2022-09-27T21:31:45.044Z,100.00
2022-09-27T21:34:13.042Z,100.00
2022-09-27T21:36:41.288Z,100.00
2022-09-27T21:39:10.674Z,100.00
2022-09-27T21:41:39.359Z,100.00
2022-09-27T21:44:07.751Z,100.00
2022-09-27T21:46:36.488Z,100.00
2022-09-27T21:49:05.923Z,100.00
2022-09-27T21:51:37.762Z,100.00
2022-09-27T21:54:08.841Z,100.00
2022-09-27T21:56:38.938Z,100.00
2022-09-27T21:59:08.201Z,100.00
2022-09-27T22:01:36.656Z,100.00
2022-09-27T22:04:07.895Z,100.00
2022-09-27T22:06:38.480Z,100.00
2022-09-27T22:09:10.666Z,100.00
2022-09-27T22:11:42.979Z,100.00
2022-09-27T22:14:13.433Z,100.00
2022-09-27T22:16:41.492Z,100.00
2022-09-27T22:19:12.283Z,100.00
2022-09-27T22:21:41.193Z,100.00
2022-09-27T22:24:12.172Z,100.00
2022-09-27T22:26:42.452Z,100.00
2022-09-27T22:29:10.578Z,100.00
2022-09-27T22:31:38.989Z,100.00
2022-09-27T22:34:10.840Z,100.00
2022-09-27T22:36:40.677Z,100.00
2022-09-27T22:39:08.854Z,100.00
2022-09-27T22:41:38.141Z,100.00
2022-09-27T22:44:06.354Z,100.00
2022-09-27T22:46:34.363Z,100.00
2022-09-27T22:49:02.684Z,100.00
2022-09-27T22:51:31.118Z,100.00
2022-09-27T22:54:00.945Z,100.00
2022-09-27T22:56:29.076Z,100.00
2022-09-27T22:58:57.592Z,100.00
2022-09-27T23:01:26.698Z,100.00
2022-09-27T23:03:56.023Z,100.00
2022-09-27T23:06:24.420Z,100.00
2022-09-27T23:08:53.862Z,100.00
2022-09-27T23:11:24.301Z,100.00
2022-09-27T23:13:53.024Z,100.00
2022-09-27T23:16:25.235Z,100.00
2022-09-27T23:18:54.313Z,100.00
2022-09-27T23:21:24.235Z,100.00
2022-09-27T23:23:52.989Z,100.00
2022-09-27T23:26:24.246Z,100.00
2022-09-27T23:28:54.687Z,100.00
2022-09-27T23:31:24.066Z,100.00
2022-09-27T23:33:53.239Z,100.00
2022-09-27T23:36:24.284Z,100.00
2022-09-27T23:38:52.489Z,100.00
2022-09-27T23:41:20.973Z,100.00
2022-09-27T23:43:49.913Z,100.00
2022-09-27T23:46:19.518Z,100.00
2022-09-27T23:48:47.929Z,100.00
2022-09-27T23:51:16.001Z,100.00
2022-09-27T23:53:44.610Z,100.00
2022-09-27T23:56:15.304Z,100.00
2022-09-27T23:58:45.103Z,100.00
